createdAt,value
2022-08-14T00:02:37.181Z,62.50
2022-08-14T00:08:01.483Z,61.88
2022-08-14T00:13:28.613Z,62.57
2022-08-14T00:19:06.591Z,62.48
2022-08-14T00:24:39.205Z,62.46
2022-08-14T00:30:02.300Z,63.11
2022-08-14T00:35:42.224Z,64.36
2022-08-14T00:41:11.719Z,65.34
2022-08-14T00:46:35.419Z,66.81
2022-08-14T00:51:59.846Z,69.15
2022-08-14T00:57:25.525Z,66.69
2022-08-14T01:02:48.529Z,68.04
2022-08-14T01:08:52.450Z,69.06
2022-08-14T01:14:25.514Z,67.14
2022-08-14T01:20:05.885Z,66.41
2022-08-14T01:25:52.847Z,68.34
2022-08-14T01:31:18.428Z,68.48
2022-08-14T01:36:41.754Z,68.12
2022-08-14T01:42:08.824Z,67.67
2022-08-14T01:47:33.557Z,69.56
2022-08-14T01:53:01.287Z,70.94
2022-08-14T01:58:29.711Z,71.11
2022-08-14T02:03:57.147Z,70.95
2022-08-14T02:09:22.565Z,72.50
2022-08-14T02:14:59.024Z,71.78
2022-08-14T02:20:23.846Z,73.22
2022-08-14T02:25:54.551Z,73.54
2022-08-14T02:31:19.811Z,73.72
2022-08-14T02:37:03.866Z,74.02
2022-08-14T02:42:47.168Z,73.76
2022-08-14T02:49:02.561Z,73.06
2022-08-14T02:54:01.499Z,74.09
2022-08-14T02:59:29.560Z,74.67
2022-08-14T03:04:58.246Z,75.86
2022-08-14T03:10:27.763Z,81.91
2022-08-14T03:15:57.981Z,76.63
2022-08-14T03:21:25.050Z,75.39
2022-08-14T03:26:49.714Z,77.85
2022-08-14T03:32:20.253Z,77.21
2022-08-14T03:39:10.667Z,78.36
2022-08-14T03:43:37.999Z,81.22
2022-08-14T03:49:05.294Z,77.09
2022-08-14T03:54:30.962Z,76.76
2022-08-14T03:59:53.984Z,76.53
2022-08-14T04:05:17.120Z,77.61
2022-08-14T04:10:41.609Z,79.91
2022-08-14T04:16:06.789Z,82.58
2022-08-14T04:21:39.706Z,86.75
2022-08-14T04:27:17.693Z,83.03
2022-08-14T04:33:12.152Z,81.28
2022-08-14T04:38:41.724Z,80.70
2022-08-14T04:44:06.461Z,81.72
2022-08-14T04:49:46.519Z,81.07
2022-08-14T04:55:20.495Z,82.37
2022-08-14T05:00:45.263Z,81.94
2022-08-14T05:06:37.818Z,80.92
2022-08-14T05:11:55.776Z,80.63
2022-08-14T05:17:54.017Z,81.21
2022-08-14T05:23:28.766Z,81.62
2022-08-14T05:28:51.736Z,84.93
2022-08-14T05:34:16.209Z,87.05
2022-08-14T05:39:41.200Z,86.71
2022-08-14T05:45:11.148Z,87.48
2022-08-14T05:50:38.220Z,88.03
2022-08-14T05:56:01.231Z,85.88
2022-08-14T06:01:24.443Z,83.53
2022-08-14T06:06:55.678Z,82.15
2022-08-14T06:12:31.399Z,82.24
2022-08-14T06:18:04.256Z,81.75
2022-08-14T06:23:28.613Z,81.75
2022-08-14T06:28:52.819Z,81.26
2022-08-14T06:35:10.161Z,81.23
2022-08-14T06:40:01.550Z,81.83
2022-08-14T06:45:28.415Z,81.51
2022-08-14T06:50:53.751Z,80.00
2022-08-14T07:03:29.963Z,78.84
2022-08-14T07:08:54.564Z,78.72
2022-08-14T07:14:19.137Z,78.52
2022-08-14T07:19:42.169Z,77.64
2022-08-14T07:25:05.742Z,78.36
2022-08-14T07:30:33.820Z,76.85
2022-08-14T07:35:59.844Z,77.49
2022-08-14T07:41:23.056Z,77.07
2022-08-14T07:46:47.334Z,76.49
2022-08-14T07:52:10.621Z,76.21
2022-08-14T07:57:36.362Z,76.24
2022-08-14T08:03:02.968Z,75.66
2022-08-14T08:08:27.725Z,75.65
2022-08-14T08:13:58.464Z,74.89
2022-08-14T08:19:23.908Z,74.59
2022-08-14T08:24:47.355Z,74.32
2022-08-14T08:30:14.775Z,73.78
2022-08-14T08:35:46.963Z,72.54
2022-08-14T08:41:16.769Z,72.83
2022-08-14T08:46:42.662Z,72.14
2022-08-14T08:52:15.073Z,70.60
2022-08-14T08:57:38.648Z,69.88
2022-08-14T09:03:05.325Z,69.42
2022-08-14T09:08:32.783Z,68.94
2022-08-14T09:13:56.418Z,68.09
2022-08-14T09:19:22.078Z,68.84
2022-08-14T09:24:49.497Z,69.05
2022-08-14T09:30:31.137Z,68.51
2022-08-14T09:36:12.765Z,69.06
2022-08-14T09:42:20.151Z,66.08
2022-08-14T09:47:49.183Z,67.04
2022-08-14T09:53:19.102Z,66.79
2022-08-14T09:58:46.867Z,66.29
2022-08-14T10:04:32.928Z,65.48
2022-08-14T10:10:02.066Z,63.50
2022-08-14T10:15:29.965Z,64.31
2022-08-14T10:20:57.855Z,63.36
2022-08-14T10:26:28.444Z,61.51
2022-08-14T10:32:00.214Z,62.18
2022-08-14T10:37:28.040Z,60.19
2022-08-14T10:42:51.687Z,61.68
2022-08-14T10:48:24.530Z,60.87
2022-08-14T10:54:16.455Z,60.96
2022-08-14T10:59:55.547Z,59.59
2022-08-14T11:05:20.432Z,57.94
2022-08-14T11:10:46.666Z,58.75
2022-08-14T11:16:09.949Z,57.30
2022-08-14T11:21:35.860Z,56.97
2022-08-14T11:27:05.512Z,58.21
2022-08-14T11:32:29.182Z,57.85
2022-08-14T11:37:57.422Z,56.74
2022-08-14T11:43:29.023Z,55.40
2022-08-14T11:49:04.323Z,55.39
2022-08-14T11:54:35.179Z,53.63
2022-08-14T12:00:04.717Z,52.19
2022-08-14T12:05:34.238Z,51.90
2022-08-14T12:11:00.735Z,52.67
2022-08-14T12:16:25.104Z,51.64
2022-08-14T12:21:52.245Z,52.19
2022-08-14T12:27:18.531Z,50.52
2022-08-14T12:32:48.386Z,50.18
2022-08-14T12:38:19.438Z,48.97
2022-08-14T12:43:53.983Z,50.74
2022-08-14T12:49:22.943Z,50.06
2022-08-14T12:55:06.178Z,49.39
2022-08-14T13:00:32.263Z,50.25
2022-08-14T13:05:59.395Z,49.99
2022-08-14T13:11:31.347Z,50.95
2022-08-14T13:16:58.833Z,49.34
2022-08-14T13:22:32.174Z,48.17
2022-08-14T13:27:59.328Z,50.29
2022-08-14T13:33:25.059Z,48.47
2022-08-14T13:38:51.136Z,48.09
2022-08-14T13:44:15.020Z,48.25
2022-08-14T13:49:57.758Z,47.56
2022-08-14T13:55:23.898Z,46.62
2022-08-14T14:00:54.838Z,49.81
2022-08-14T14:06:21.747Z,50.88
2022-08-14T14:11:45.603Z,51.94
2022-08-14T14:17:12.466Z,49.11
2022-08-14T14:23:02.168Z,48.35
2022-08-14T14:28:31.137Z,47.47
2022-08-14T14:34:07.592Z,45.35
2022-08-14T14:40:54.419Z,45.58
2022-08-14T14:45:32.837Z,45.36
2022-08-14T14:51:01.333Z,45.11
2022-08-14T14:56:50.489Z,47.25
2022-08-14T15:02:22.602Z,47.78
2022-08-14T15:07:48.100Z,48.24
2022-08-14T15:13:12.873Z,48.60
2022-08-14T15:18:39.471Z,46.98
2022-08-14T15:24:06.077Z,48.21
2022-08-14T15:29:43.199Z,49.88
2022-08-14T15:35:07.856Z,47.09
2022-08-14T15:40:31.153Z,50.43
2022-08-14T15:45:56.235Z,51.58
2022-08-14T15:51:24.854Z,52.02
2022-08-14T15:56:58.624Z,52.66
2022-08-14T16:02:27.611Z,53.03
2022-08-14T16:07:51.046Z,51.88
2022-08-14T16:13:17.255Z,53.44
2022-08-14T16:18:59.662Z,52.80
2022-08-14T16:24:27.910Z,53.83
2022-08-14T16:29:51.370Z,51.41
2022-08-14T16:35:16.429Z,51.49
2022-08-14T16:40:43.555Z,52.49
2022-08-14T16:46:07.688Z,53.46
2022-08-14T16:51:34.979Z,55.90
2022-08-14T16:57:16.188Z,56.20
2022-08-14T17:02:43.558Z,56.29
2022-08-14T17:08:32.510Z,56.09
2022-08-14T17:14:01.451Z,56.13
2022-08-14T17:19:25.879Z,57.55
2022-08-14T17:25:03.750Z,58.90
2022-08-14T17:30:31.926Z,58.14
2022-08-14T17:36:21.098Z,60.53
2022-08-14T17:42:03.039Z,61.22
2022-08-14T17:47:27.815Z,59.18
2022-08-14T17:52:57.156Z,59.02
2022-08-14T17:58:24.388Z,58.98
2022-08-14T18:03:53.999Z,59.99
2022-08-14T18:09:25.916Z,60.45
2022-08-14T18:14:53.668Z,60.76
2022-08-14T18:21:41.767Z,61.24
2022-08-14T18:26:04.884Z,62.88
2022-08-14T18:31:43.921Z,62.99
2022-08-14T18:37:21.285Z,63.07
2022-08-14T18:42:48.080Z,62.63
2022-08-14T18:48:33.197Z,63.41
2022-08-14T18:54:32.749Z,63.75
2022-08-14T18:59:57.604Z,62.57
2022-08-14T19:05:56.463Z,62.70
2022-08-14T19:11:50.285Z,64.07
2022-08-14T19:18:14.228Z,64.87
2022-08-14T19:23:42.010Z,65.48
2022-08-14T19:29:24.610Z,66.72
2022-08-14T19:34:52.952Z,65.63
2022-08-14T19:40:31.771Z,66.77
2022-08-14T19:46:01.389Z,67.60
2022-08-14T19:51:32.690Z,64.57
2022-08-14T19:57:01.363Z,67.41
2022-08-14T20:02:30.315Z,66.91
2022-08-14T20:08:06.184Z,67.14
2022-08-14T20:13:32.592Z,67.38
2022-08-14T20:18:58.804Z,68.11
2022-08-14T20:24:31.639Z,68.73
2022-08-14T20:30:33.551Z,69.10
2022-08-14T20:36:00.005Z,69.48
2022-08-14T20:41:25.365Z,70.77
2022-08-14T20:46:49.924Z,71.81
2022-08-14T20:52:20.137Z,71.94
2022-08-14T20:57:44.333Z,71.06
2022-08-14T21:03:57.145Z,71.41
2022-08-14T21:10:03.161Z,71.25
2022-08-14T21:15:13.777Z,72.33
2022-08-14T21:20:38.537Z,74.68
2022-08-14T21:26:03.685Z,73.82
2022-08-14T21:31:30.335Z,76.14
2022-08-14T21:36:55.682Z,74.14
2022-08-14T21:42:18.969Z,74.29
2022-08-14T21:47:43.329Z,73.46
2022-08-14T21:53:08.775Z,79.43
2022-08-14T21:58:53.054Z,78.29
2022-08-14T22:04:33.800Z,76.45
2022-08-14T22:09:59.267Z,75.48
2022-08-14T22:15:30.094Z,80.55
2022-08-14T22:20:56.502Z,79.91
2022-08-14T22:26:21.902Z,77.85
2022-08-14T22:31:50.341Z,78.32
2022-08-14T22:37:21.433Z,79.98
2022-08-14T22:42:59.904Z,78.82
2022-08-14T22:48:26.495Z,81.36
2022-08-14T22:53:54.759Z,81.45
2022-08-14T22:59:20.379Z,82.27
2022-08-14T23:05:03.336Z,85.63
2022-08-14T23:10:31.824Z,85.71
2022-08-14T23:15:59.035Z,83.46
2022-08-14T23:21:24.470Z,84.31
2022-08-14T23:26:50.652Z,82.63
2022-08-14T23:32:19.157Z,83.51
2022-08-14T23:37:43.860Z,83.40
2022-08-14T23:43:11.209Z,84.05
2022-08-14T23:48:39.147Z,82.74
2022-08-14T23:54:48.097Z,86.92
2022-08-14T23:59:54.268Z,84.89
